Time;durP1;ratioP1;P1;durP2;ratioP2;P2;SDS_P1;SDS_P2;PMS_P1;PMS_P2;Temp;Humidity;BMP_temperature;BMP_pressure;BME280_temperature;BME280_humidity;BME280_pressure;Samples;Min_cycle;Max_cycle;Signal;HPM_P1;HPM_P2
2023/01/27 00:00:58;;;;;;;44.15;24.08;;;1.70;99.90;;;;;;6229498;23;20187;-83
2023/01/27 00:03:25;;;;;;;52.60;23.60;;;1.70;99.90;;;;;;6206469;23;20211;-87
2023/01/27 00:05:53;;;;;;;42.00;21.63;;;1.60;99.90;;;;;;6235539;23;20235;-87
2023/01/27 00:08:20;;;;;;;52.35;20.75;;;1.70;99.90;;;;;;6207093;23;20242;-87
2023/01/27 00:13:25;;;;;;;44.22;23.23;;;1.70;99.90;;;;;;6232232;23;20178;-86
2023/01/27 00:13:42;;;;;;;47.28;21.65;;;2.00;99.90;;;;;;6232899;23;20223;-86
2023/01/27 00:16:09;;;;;;;44.83;20.77;;;1.90;99.90;;;;;;6206902;23;20207;-88
2023/01/27 00:18:37;;;;;;;49.88;25.20;;;2.00;99.90;;;;;;6207120;23;20240;-88
2023/01/27 00:27:07;;;;;;;47.03;19.30;;;1.90;99.90;;;;;;6229516;23;20169;-85
2023/01/27 00:29:38;;;;;;;54.25;22.75;;;1.80;99.90;;;;;;6233387;23;20228;-84
2023/01/27 00:34:57;;;;;;;64.78;24.60;;;1.80;99.90;;;;;;6239188;23;20151;-87
2023/01/27 00:37:23;;;;;;;61.05;24.02;;;1.80;99.90;;;;;;6213090;23;20168;-88
2023/01/27 00:39:53;;;;;;;61.67;23.90;;;1.80;99.90;;;;;;6238088;23;20164;-88
2023/01/27 00:42:21;;;;;;;68.13;26.38;;;1.70;99.90;;;;;;6237397;23;20219;-87
2023/01/27 00:47:37;;;;;;;57.45;25.25;;;1.70;99.90;;;;;;6233802;23;20154;-85
2023/01/27 00:50:05;;;;;;;60.35;24.85;;;1.70;99.90;;;;;;6235655;23;20210;-89
2023/01/27 00:52:32;;;;;;;55.67;25.20;;;1.60;99.90;;;;;;6236940;23;20198;-90
2023/01/27 00:54:59;;;;;;;82.00;26.70;;;1.60;99.90;;;;;;6237791;23;20168;-88
2023/01/27 00:57:26;;;;;;;62.17;26.48;;;1.70;99.90;;;;;;6208527;23;20180;-88
2023/01/27 00:59:53;;;;;;;66.20;24.20;;;1.80;99.90;;;;;;6230971;23;20175;-87
2023/01/27 01:02:28;;;;;;;52.25;25.85;;;1.70;99.90;;;;;;6229702;23;20223;-86
2023/01/27 01:04:56;;;;;;;73.53;27.98;;;1.80;99.90;;;;;;6204486;23;20159;-89
2023/01/27 01:07:24;;;;;;;79.00;29.75;;;1.60;99.90;;;;;;6230204;23;20183;-88
2023/01/27 01:09:51;;;;;;;60.63;25.67;;;1.60;99.90;;;;;;6229086;23;20188;-88
2023/01/27 01:12:18;;;;;;;76.78;32.35;;;1.80;99.90;;;;;;6225555;23;20233;-87
2023/01/27 01:14:45;;;;;;;76.20;30.23;;;1.70;99.90;;;;;;6196709;23;20196;-87
2023/01/27 01:17:12;;;;;;;107.43;41.50;;;1.80;99.90;;;;;;6196635;23;20618;-87
2023/01/27 01:19:39;;;;;;;86.30;39.47;;;1.90;99.90;;;;;;6195942;23;20190;-85
2023/01/27 01:22:06;;;;;;;85.32;37.17;;;2.10;99.90;;;;;;6198539;23;20206;-86
2023/01/27 01:24:34;;;;;;;79.28;38.65;;;1.80;99.90;;;;;;6223265;23;20189;-86
2023/01/27 01:27:01;;;;;;;93.90;40.40;;;1.70;99.90;;;;;;6210096;23;20215;-90
2023/01/27 01:29:28;;;;;;;85.38;38.30;;;1.80;99.90;;;;;;6238320;23;20203;-86
2023/01/27 01:31:55;;;;;;;90.43;42.00;;;1.80;99.90;;;;;;6212075;23;20170;-88
2023/01/27 01:34:24;;;;;;;88.10;38.55;;;1.80;99.90;;;;;;6205663;23;20179;-86
2023/01/27 01:36:52;;;;;;;74.68;37.40;;;2.00;99.90;;;;;;6201609;23;20230;-88
2023/01/27 01:39:18;;;;;;;77.70;39.28;;;2.00;99.90;;;;;;6195140;23;20184;-84
2023/01/27 01:41:46;;;;;;;80.50;38.42;;;2.10;99.90;;;;;;6220227;23;20270;-84
2023/01/27 01:44:24;;;;;;;75.82;37.80;;;2.00;99.90;;;;;;6222444;23;20211;-87
2023/01/27 01:46:51;;;;;;;77.25;38.15;;;1.80;99.90;;;;;;6223476;23;20206;-85
2023/01/27 01:49:25;;;;;;;77.40;38.25;;;1.80;99.90;;;;;;6194612;23;20210;-85
2023/01/27 01:51:58;;;;;;;67.82;34.47;;;2.00;99.90;;;;;;6195412;23;20215;-86
2023/01/27 01:54:40;;;;;;;86.95;36.63;;;2.00;99.90;;;;;;6221187;23;20168;-85
2023/01/27 01:57:12;;;;;;;76.10;40.80;;;2.10;99.90;;;;;;6222035;23;20217;-85
2023/01/27 01:59:44;;;;;;;69.93;35.80;;;2.00;99.90;;;;;;6194446;23;20497;-83
2023/01/27 02:02:14;;;;;;;80.18;37.92;;;1.80;99.90;;;;;;6220918;23;20188;-84
2023/01/27 02:04:47;;;;;;;76.40;35.03;;;1.80;99.90;;;;;;6194059;23;20191;-83
2023/01/27 02:07:34;;;;;;;79.68;37.85;;;1.90;99.90;;;;;;6222180;23;20180;-87
2023/01/27 02:10:02;;;;;;;76.28;34.88;;;2.10;99.90;;;;;;6221082;23;20428;-85
2023/01/27 02:12:29;;;;;;;80.97;38.03;;;2.40;99.90;;;;;;6221112;23;20314;-85
2023/01/27 02:14:57;;;;;;;87.32;41.33;;;2.40;99.90;;;;;;6195009;23;20554;-85
2023/01/27 02:17:24;;;;;;;78.07;38.35;;;2.50;99.90;;;;;;6220980;23;20419;-84
2023/01/27 02:20:10;;;;;;;82.38;39.40;;;2.50;99.90;;;;;;6220468;23;20417;-85
2023/01/27 02:23:12;;;;;;;69.18;34.55;;;2.70;99.90;;;;;;6221939;23;20205;-85
2023/01/27 02:26:16;;;;;;;60.55;29.55;;;2.60;99.90;;;;;;6221863;23;20236;-86
2023/01/27 02:28:43;;;;;;;58.17;26.30;;;2.60;99.90;;;;;;6149580;23;20195;-86
2023/01/27 02:31:11;;;;;;;58.70;28.75;;;2.40;99.90;;;;;;6223422;23;20182;-85
2023/01/27 02:33:39;;;;;;;61.78;29.42;;;2.20;99.90;;;;;;6232465;23;20167;-88
2023/01/27 02:36:11;;;;;;;74.93;32.45;;;2.10;99.90;;;;;;6237650;23;20179;-89
2023/01/27 02:38:43;;;;;;;73.57;31.40;;;1.90;99.90;;;;;;6237446;23;20226;-89
2023/01/27 02:41:25;;;;;;;61.25;27.58;;;2.10;99.90;;;;;;6211397;23;20169;-88
2023/01/27 02:43:52;;;;;;;55.15;28.88;;;2.20;99.90;;;;;;6210504;23;20192;-85
2023/01/27 02:46:20;;;;;;;50.22;27.75;;;2.10;99.90;;;;;;6223632;23;20181;-86
2023/01/27 02:48:48;;;;;;;59.90;28.75;;;2.10;99.90;;;;;;6201080;23;20175;-86
2023/01/27 02:51:15;;;;;;;55.47;29.23;;;2.30;99.90;;;;;;6193568;23;20510;-86
2023/01/27 02:53:43;;;;;;;53.20;25.92;;;1.90;99.90;;;;;;6220065;23;20192;-86
2023/01/27 02:56:10;;;;;;;55.35;24.70;;;2.00;99.90;;;;;;6220437;23;20786;-86
2023/01/27 02:58:37;;;;;;;50.60;24.30;;;2.00;99.90;;;;;;6193805;23;20187;-85
2023/01/27 03:01:05;;;;;;;44.70;24.98;;;1.90;99.90;;;;;;6221035;23;20191;-87
2023/01/27 03:03:32;;;;;;;57.70;26.05;;;1.90;99.90;;;;;;6219832;23;20204;-86
2023/01/27 03:06:00;;;;;;;52.05;26.42;;;2.00;99.90;;;;;;6221582;23;20176;-85
2023/01/27 03:08:27;;;;;;;52.45;24.98;;;2.10;99.90;;;;;;6194434;23;20215;-85
2023/01/27 03:10:54;;;;;;;45.47;22.83;;;1.90;99.90;;;;;;6219794;23;20190;-86
2023/01/27 03:13:23;;;;;;;55.88;24.75;;;1.80;99.90;;;;;;6221293;23;20168;-86
2023/01/27 03:18:39;;;;;;;42.08;19.30;;;1.80;99.90;;;;;;6220328;23;20380;-86
2023/01/27 03:21:06;;;;;;;41.63;21.35;;;1.90;99.90;;;;;;6220565;23;20176;-86
2023/01/27 03:23:33;;;;;;;44.85;19.08;;;1.80;99.90;;;;;;6220735;23;20263;-84
2023/01/27 03:26:04;;;;;;;32.67;16.10;;;1.80;99.90;;;;;;6219502;23;20372;-82
2023/01/27 03:28:31;;;;;;;32.00;16.00;;;1.70;99.90;;;;;;6219677;23;20172;-82
2023/01/27 03:31:07;;;;;;;39.53;18.02;;;1.70;99.90;;;;;;6218989;23;20364;-83
2023/01/27 03:33:34;;;;;;;47.70;20.13;;;1.60;99.90;;;;;;6219992;23;20187;-84
2023/01/27 03:47:04;;;;;;;44.28;19.55;;;1.50;99.90;;;;;;6220189;23;20181;-87
2023/01/27 03:49:32;;;;;;;48.05;20.17;;;1.40;99.90;;;;;;6193258;23;20245;-87
2023/01/27 03:52:01;;;;;;;45.92;22.05;;;1.40;99.90;;;;;;6224427;23;20355;-90
2023/01/27 03:54:28;;;;;;;47.08;21.33;;;1.40;99.90;;;;;;6221528;23;20371;-90
2023/01/27 03:56:55;;;;;;;61.13;22.77;;;1.40;99.90;;;;;;6206518;23;20186;-85
2023/01/27 03:59:22;;;;;;;54.50;22.20;;;1.40;99.90;;;;;;6237318;23;20164;-85
2023/01/27 04:01:50;;;;;;;60.67;26.00;;;1.50;99.90;;;;;;6213063;23;20164;-89
2023/01/27 04:07:03;;;;;;;56.60;24.67;;;1.50;99.90;;;;;;6228250;23;20188;-86
2023/01/27 04:09:33;;;;;;;61.75;27.60;;;1.40;99.90;;;;;;6228210;23;20193;-89
2023/01/27 04:12:03;;;;;;;61.78;24.00;;;1.30;99.90;;;;;;6202373;23;20548;-88
2023/01/27 04:14:40;;;;;;;58.67;23.85;;;1.50;99.90;;;;;;6233819;23;20204;-89
2023/01/27 04:17:14;;;;;;;57.40;25.23;;;1.40;99.90;;;;;;6237933;23;20159;-87
2023/01/27 04:19:42;;;;;;;59.47;25.02;;;1.40;99.90;;;;;;6220449;22;20281;-88
2023/01/27 04:22:22;;;;;;;64.15;25.08;;;1.40;99.90;;;;;;6211716;23;20172;-90
2023/01/27 04:24:52;;;;;;;72.57;25.98;;;1.30;99.90;;;;;;6235112;23;20200;-90
2023/01/27 04:27:22;;;;;;;72.35;24.35;;;1.30;99.90;;;;;;6227261;23;20176;-90
2023/01/27 04:37:51;;;;;;;83.15;28.50;;;1.30;99.90;;;;;;6170456;23;20226;-88
2023/01/27 04:40:19;;;;;;;72.97;27.42;;;1.30;99.90;;;;;;6175106;23;20207;-88
2023/01/27 04:48:05;;;;;;;77.28;27.55;;;1.20;99.90;;;;;;6194794;23;20205;-86
2023/01/27 04:53:11;;;;;;;74.45;27.58;;;1.30;99.90;;;;;;6205070;23;20193;-87
2023/01/27 04:58:20;;;;;;;85.25;29.20;;;1.20;99.90;;;;;;6180025;23;20299;-89
2023/01/27 05:06:30;;;;;;;67.30;28.27;;;1.20;99.90;;;;;;6188870;23;20218;-88
2023/01/27 05:11:32;;;;;;;80.85;30.75;;;1.20;99.90;;;;;;6144537;23;21635;31
2023/01/27 05:19:27;;;;;;;99.50;30.58;;;1.20;99.90;;;;;;6172999;23;20498;-88
2023/01/27 06:07:39;;;;;;;97.28;32.67;;;1.20;99.90;;;;;;6174610;23;20233;-90
2023/01/27 06:45:00;;;;;;;103.10;32.40;;;1.40;99.90;;;;;;6139230;23;20183;-87
2023/01/27 06:55:34;;;;;;;106.82;33.60;;;1.40;99.90;;;;;;6155742;23;20214;-87
2023/01/27 06:58:03;;;;;;;105.50;32.67;;;1.40;99.90;;;;;;6147629;22;21429;-88
2023/01/27 07:05:39;;;;;;;114.60;35.08;;;1.40;99.90;;;;;;6189021;23;20200;-91
2023/01/27 07:13:26;;;;;;;98.95;36.83;;;1.40;99.90;;;;;;6158282;23;21142;-88
2023/01/27 07:21:25;;;;;;;78.93;31.23;;;1.40;99.90;;;;;;6147740;23;20524;-89
2023/01/27 07:32:09;;;;;;;103.15;31.70;;;1.40;99.90;;;;;;6145910;23;20191;-88
2023/01/27 07:40:03;;;;;;;104.85;33.80;;;1.70;99.90;;;;;;6172108;23;20253;-89
2023/01/27 07:47:47;;;;;;;99.78;32.05;;;1.70;99.90;;;;;;6161755;23;20207;-87
2023/01/27 07:53:04;;;;;;;86.45;28.67;;;1.70;99.90;;;;;;6213078;23;20271;-85
2023/01/27 07:55:37;;;;;;;89.10;31.42;;;1.60;99.90;;;;;;6230523;23;20175;-91
2023/01/27 07:58:05;;;;;;;79.95;27.70;;;1.60;99.90;;;;;;6205909;23;20211;-91
2023/01/27 08:00:33;;;;;;;79.43;30.77;;;1.70;99.90;;;;;;6228925;23;20186;-87
2023/01/27 08:03:01;;;;;;;100.47;29.45;;;1.50;99.90;;;;;;6225720;23;20183;-83
2023/01/27 08:05:33;;;;;;;89.47;29.13;;;1.60;99.90;;;;;;6229931;23;20235;-84
2023/01/27 08:08:03;;;;;;;97.00;32.78;;;1.50;99.90;;;;;;6229074;23;20183;-90
2023/01/27 08:10:34;;;;;;;73.88;29.40;;;1.50;99.90;;;;;;6229036;23;20156;-90
2023/01/27 08:13:05;;;;;;;112.20;32.90;;;1.50;99.90;;;;;;6205666;23;20189;-90
2023/01/27 08:15:34;;;;;;;90.00;31.95;;;1.70;99.90;;;;;;6181735;23;20230;-90
2023/01/27 08:18:04;;;;;;;93.88;31.35;;;1.60;99.90;;;;;;6228836;23;20214;-92
2023/01/27 08:20:33;;;;;;;94.82;30.00;;;1.70;99.90;;;;;;6207323;23;20195;-91
2023/01/27 08:23:00;;;;;;;93.50;27.77;;;1.70;99.90;;;;;;6208266;23;20376;-86
2023/01/27 08:25:30;;;;;;;75.53;27.55;;;1.50;99.90;;;;;;6214254;23;20206;-88
2023/01/27 08:27:57;;;;;;;102.47;31.55;;;1.60;99.90;;;;;;6214349;23;20183;-88
2023/01/27 08:30:27;;;;;;;99.38;28.50;;;1.60;99.90;;;;;;6214573;23;20175;-89
2023/01/27 08:32:55;;;;;;;99.43;29.38;;;1.60;99.90;;;;;;6207567;23;20185;-90
2023/01/27 08:35:38;;;;;;;112.30;36.33;;;1.70;99.90;;;;;;6230021;23;20551;-90
2023/01/27 08:38:05;;;;;;;78.05;27.80;;;1.50;99.90;;;;;;6184584;23;20235;-91
2023/01/27 08:40:41;;;;;;;85.05;28.80;;;1.50;99.90;;;;;;6181457;23;20210;-90
2023/01/27 08:43:15;;;;;;;93.63;27.80;;;1.60;99.90;;;;;;6230703;23;20231;-90
2023/01/27 08:45:59;;;;;;;117.78;28.88;;;1.60;99.90;;;;;;6211232;23;20191;-88
2023/01/27 08:48:32;;;;;;;99.45;29.52;;;1.60;99.90;;;;;;6206323;23;20218;-88
2023/01/27 08:51:05;;;;;;;106.63;31.48;;;1.50;99.90;;;;;;6207221;23;20172;-85
2023/01/27 08:53:36;;;;;;;98.88;30.60;;;1.50;99.90;;;;;;6233995;23;20388;-88
2023/01/27 08:56:07;;;;;;;92.55;28.38;;;1.50;99.90;;;;;;6185564;23;20172;-90
2023/01/27 08:58:37;;;;;;;93.97;28.98;;;1.60;99.90;;;;;;6235429;23;20171;-91
2023/01/27 09:01:14;;;;;;;102.60;33.42;;;1.60;99.90;;;;;;6212409;23;20172;-90
2023/01/27 09:03:46;;;;;;;78.18;30.33;;;1.70;99.90;;;;;;6193862;23;20187;-91
2023/01/27 09:06:15;;;;;;;98.82;28.00;;;1.70;99.90;;;;;;6218105;23;20176;-89
2023/01/27 09:08:43;;;;;;;111.43;31.23;;;1.70;99.90;;;;;;6243370;23;20179;-89
2023/01/27 09:11:17;;;;;;;93.70;28.98;;;1.80;99.90;;;;;;6243366;23;20159;-90
2023/01/27 09:13:55;;;;;;;90.97;29.60;;;1.70;99.90;;;;;;6243750;23;20161;-85
2023/01/27 09:16:27;;;;;;;239.07;104.97;;;1.70;99.90;;;;;;6218240;23;20169;-85
2023/01/27 09:19:00;;;;;;;102.20;29.10;;;1.70;99.90;;;;;;6234590;23;20176;-87
2023/01/27 09:21:28;;;;;;;97.32;31.00;;;1.70;99.90;;;;;;6205243;23;20214;-89
2023/01/27 09:23:59;;;;;;;95.05;33.10;;;1.60;99.90;;;;;;6203223;23;20207;-89
2023/01/27 09:26:41;;;;;;;96.78;27.58;;;1.70;99.90;;;;;;6232151;23;20187;-82
2023/01/27 09:29:32;;;;;;;86.65;27.52;;;1.60;99.90;;;;;;6225096;23;20188;-90
2023/01/27 09:32:01;;;;;;;127.82;31.05;;;1.60;99.90;;;;;;6227788;23;20247;-90
2023/01/27 09:34:40;;;;;;;88.55;30.98;;;1.60;99.90;;;;;;6202055;23;20538;-87
2023/01/27 09:37:20;;;;;;;82.72;28.55;;;1.60;99.90;;;;;;6177231;23;20245;-91
2023/01/27 09:39:54;;;;;;;66.53;25.05;;;1.40;99.90;;;;;;6230220;23;20175;-82
2023/01/27 09:43:07;;;;;;;107.10;33.08;;;1.60;99.90;;;;;;6204834;23;20611;-91
2023/01/27 09:45:53;;;;;;;79.13;29.30;;;1.60;99.90;;;;;;6085033;23;20210;-90
2023/01/27 09:48:52;;;;;;;84.80;31.50;;;1.70;99.90;;;;;;6203497;23;20172;-89
2023/01/27 09:52:10;;;;;;;87.32;30.42;;;1.70;99.90;;;;;;6205100;23;20242;-86
2023/01/27 09:55:01;;;;;;;99.15;30.50;;;1.60;99.90;;;;;;6229650;23;20172;-91
2023/01/27 09:58:03;;;;;;;98.32;33.22;;;1.60;99.90;;;;;;6229653;23;20173;-91
2023/01/27 10:00:54;;;;;;;77.25;30.60;;;1.70;99.90;;;;;;6234687;23;20178;-90
2023/01/27 10:03:47;;;;;;;79.22;28.60;;;1.80;99.90;;;;;;6148063;23;20184;-87
2023/01/27 10:06:55;;;;;;;90.75;32.92;;;1.60;99.90;;;;;;6201045;23;20164;-86
2023/01/27 10:09:51;;;;;;;109.38;33.30;;;1.60;99.90;;;;;;6201815;23;20346;-88
2023/01/27 10:12:48;;;;;;;102.90;34.28;;;1.60;99.90;;;;;;6201482;23;20655;-90
2023/01/27 10:15:24;;;;;;;104.38;32.40;;;1.50;99.90;;;;;;6201858;23;20172;-87
2023/01/27 10:18:00;;;;;;;79.07;30.95;;;1.60;99.90;;;;;;6198088;23;20187;-90
2023/01/27 10:20:50;;;;;;;106.80;32.47;;;1.70;99.90;;;;;;6199190;23;20248;-87
2023/01/27 10:23:48;;;;;;;95.82;32.72;;;1.60;99.90;;;;;;6224625;23;20164;-88
2023/01/27 10:26:41;;;;;;;80.40;29.85;;;1.70;99.90;;;;;;6226500;23;20186;-88
2023/01/27 10:29:24;;;;;;;78.55;30.17;;;1.70;99.90;;;;;;6224074;23;20203;-85
2023/01/27 10:32:08;;;;;;;81.70;28.98;;;1.70;99.90;;;;;;6225776;23;20171;-88
2023/01/27 10:34:52;;;;;;;72.07;28.90;;;1.80;99.90;;;;;;6225438;23;20176;-87
2023/01/27 10:37:51;;;;;;;75.60;31.38;;;1.80;99.90;;;;;;6198580;23;20183;-86
2023/01/27 10:40:30;;;;;;;85.10;29.00;;;1.90;99.90;;;;;;6220819;23;20233;-89
2023/01/27 10:43:13;;;;;;;83.25;31.55;;;1.90;99.90;;;;;;6201397;23;20232;-89
2023/01/27 10:45:55;;;;;;;79.47;30.95;;;2.00;99.90;;;;;;6202374;23;20222;-85
2023/01/27 10:48:49;;;;;;;63.38;29.45;;;2.00;99.90;;;;;;6230452;23;20168;-89
2023/01/27 10:51:26;;;;;;;95.65;30.15;;;2.00;99.90;;;;;;6204224;23;20234;-90
2023/01/27 10:54:14;;;;;;;63.15;27.60;;;2.10;99.90;;;;;;6205161;23;20172;-89
2023/01/27 10:57:01;;;;;;;60.03;28.63;;;2.00;99.90;;;;;;6226722;23;20179;-90
2023/01/27 11:00:15;;;;;;;63.38;27.90;;;2.00;99.90;;;;;;6200370;23;20350;-90
2023/01/27 11:03:20;;;;;;;126.28;48.03;;;2.00;99.90;;;;;;6224238;23;20180;-89
2023/01/27 11:06:03;;;;;;;91.70;44.38;;;2.00;99.90;;;;;;6205707;23;20204;-90
2023/01/27 11:08:38;;;;;;;102.70;46.53;;;1.90;99.90;;;;;;6208123;23;20171;-88
2023/01/27 11:14:03;;;;;;;106.60;50.58;;;2.00;99.90;;;;;;6206107;23;20230;-90
2023/01/27 11:16:35;;;;;;;123.03;49.42;;;1.90;99.90;;;;;;6203424;23;20317;-90
2023/01/27 11:19:18;;;;;;;123.63;49.35;;;1.90;99.90;;;;;;6203224;23;20220;-90
2023/01/27 11:21:50;;;;;;;113.50;48.30;;;1.80;99.90;;;;;;6203384;23;20401;-90
2023/01/27 11:25:03;;;;;;;108.50;46.13;;;2.10;99.90;;;;;;6203515;23;20199;-89
2023/01/27 11:27:52;;;;;;;104.68;48.38;;;1.80;99.90;;;;;;6180315;23;20177;-88
2023/01/27 11:31:02;;;;;;;105.93;45.58;;;1.90;99.90;;;;;;6229682;23;20172;-89
2023/01/27 11:33:39;;;;;;;111.80;48.28;;;1.90;99.90;;;;;;6147219;23;20176;-89
2023/01/27 11:36:08;;;;;;;102.32;47.67;;;1.80;99.90;;;;;;6211161;23;20179;-90
2023/01/27 11:38:36;;;;;;;104.10;45.45;;;1.70;99.90;;;;;;6232601;23;20184;-87
2023/01/27 11:41:06;;;;;;;101.18;50.45;;;1.70;99.90;;;;;;6210292;23;20183;-91
2023/01/27 11:43:40;;;;;;;109.60;50.08;;;1.70;99.90;;;;;;6207171;23;20175;-89
2023/01/27 11:46:24;;;;;;;145.95;50.72;;;1.80;99.90;;;;;;6200980;23;20180;-91
2023/01/27 11:48:58;;;;;;;120.93;48.17;;;1.80;99.90;;;;;;6225889;23;20187;-88
2023/01/27 11:51:41;;;;;;;122.55;48.42;;;1.60;99.90;;;;;;6202654;23;20184;-89
2023/01/27 11:54:23;;;;;;;115.57;47.83;;;1.70;99.90;;;;;;6229257;23;20206;-89
2023/01/27 11:56:50;;;;;;;116.63;45.75;;;1.70;99.90;;;;;;6202099;23;20175;-89
2023/01/27 11:59:33;;;;;;;111.55;51.60;;;1.70;99.90;;;;;;6202258;23;20176;-87
2023/01/27 12:02:19;;;;;;;131.40;48.63;;;1.70;99.90;;;;;;6204372;23;20167;-90
2023/01/27 12:05:20;;;;;;;102.40;47.15;;;1.70;99.90;;;;;;6212746;23;20188;-92
2023/01/27 12:08:03;;;;;;;106.32;43.63;;;1.70;99.90;;;;;;6207102;23;20174;-86
2023/01/27 12:10:37;;;;;;;118.10;46.42;;;1.60;99.90;;;;;;6207997;23;20156;-90
2023/01/27 12:13:23;;;;;;;103.97;43.60;;;1.60;99.90;;;;;;6205119;23;20266;-89
2023/01/27 12:18:51;;;;;;;123.47;48.95;;;1.70;99.90;;;;;;6200763;23;20172;-89
2023/01/27 12:21:34;;;;;;;132.25;53.30;;;1.40;99.90;;;;;;6151791;23;20487;-91
2023/01/27 12:24:29;;;;;;;127.03;53.35;;;1.70;99.90;;;;;;6197575;23;20492;-90
2023/01/27 12:26:59;;;;;;;128.02;52.10;;;1.90;99.90;;;;;;6173692;23;20181;-90
2023/01/27 12:29:47;;;;;;;134.55;54.47;;;1.80;99.90;;;;;;6200744;23;20172;-89
2023/01/27 12:32:23;;;;;;;145.65;52.63;;;1.90;99.90;;;;;;6176124;23;20165;-91
2023/01/27 12:34:55;;;;;;;124.97;49.55;;;2.00;99.90;;;;;;6153373;23;20191;-90
2023/01/27 12:37:35;;;;;;;129.27;51.97;;;2.00;99.90;;;;;;6184447;23;20194;-91
2023/01/27 12:40:06;;;;;;;138.07;60.95;;;2.10;99.90;;;;;;6210589;23;20168;-90
2023/01/27 12:43:12;;;;;;;112.55;51.22;;;2.00;99.90;;;;;;6209581;23;20165;-90
2023/01/27 12:45:42;;;;;;;119.65;48.58;;;2.10;99.90;;;;;;6166521;23;20188;-90
2023/01/27 12:48:14;;;;;;;130.35;59.78;;;2.10;99.90;;;;;;6208706;23;20189;-90
2023/01/27 12:50:51;;;;;;;121.03;48.88;;;2.10;99.90;;;;;;6201040;23;20189;-89
2023/01/27 12:53:26;;;;;;;127.35;47.88;;;2.10;99.90;;;;;;6180438;23;20183;-92
2023/01/27 12:56:06;;;;;;;113.95;48.97;;;2.20;99.90;;;;;;6186141;23;20196;-90
2023/01/27 12:58:53;;;;;;;123.75;50.13;;;2.10;99.90;;;;;;6210996;23;20175;-90
2023/01/27 13:01:25;;;;;;;124.95;51.42;;;2.20;99.90;;;;;;6179715;23;20466;-89
2023/01/27 13:04:11;;;;;;;112.82;49.30;;;2.20;99.90;;;;;;6198194;23;20216;-88
2023/01/27 13:06:46;;;;;;;117.78;47.80;;;2.20;99.90;;;;;;6172548;23;20168;-91
2023/01/27 13:09:32;;;;;;;;;;;;;;;;;;;;;
2023/01/27 13:12:20;;;;;;;118.47;52.95;;;2.10;99.90;;;;;;6202070;23;20241;-89
2023/01/27 13:14:56;;;;;;;106.30;42.85;;;2.20;99.90;;;;;;6201177;23;20173;-89
2023/01/27 13:17:43;;;;;;;108.50;49.08;;;2.10;99.90;;;;;;6177972;23;20195;-86
2023/01/27 13:20:34;;;;;;;89.75;43.28;;;1.90;99.90;;;;;;6181124;23;20183;-87
2023/01/27 13:23:12;;;;;;;115.65;47.70;;;1.80;99.90;;;;;;6179829;23;20247;-89
2023/01/27 13:26:07;;;;;;;123.50;49.22;;;1.80;99.90;;;;;;6175316;23;20195;-88
2023/01/27 13:28:57;;;;;;;110.47;46.42;;;2.00;99.90;;;;;;6202287;23;20405;-89
2023/01/27 13:31:50;;;;;;;133.45;52.95;;;2.10;99.90;;;;;;6197038;23;20201;-90
2023/01/27 13:34:44;;;;;;;108.43;49.85;;;2.20;99.90;;;;;;6179822;23;20238;-90
2023/01/27 13:37:35;;;;;;;109.57;49.08;;;2.00;99.90;;;;;;6181503;23;20209;-88
2023/01/27 13:40:27;;;;;;;122.38;53.08;;;2.10;99.90;;;;;;6180408;23;20191;-89
2023/01/27 13:43:12;;;;;;;128.65;45.72;;;1.90;99.90;;;;;;6176757;23;20172;-88
2023/01/27 13:46:20;;;;;;;119.78;48.75;;;1.70;99.90;;;;;;6194471;23;20188;-87
2023/01/27 13:49:10;;;;;;;122.63;48.35;;;1.80;99.90;;;;;;6171194;23;20176;-89
2023/01/27 13:51:38;;;;;;;140.45;50.90;;;1.70;99.90;;;;;;6174633;23;20228;-91
2023/01/27 13:54:14;;;;;;;104.60;40.38;;;1.80;99.90;;;;;;6181196;23;20196;-88
2023/01/27 13:56:54;;;;;;;102.53;44.92;;;1.80;99.90;;;;;;6157004;23;20232;-89
2023/01/27 14:00:13;;;;;;;92.22;41.63;;;1.60;99.90;;;;;;6179449;23;20196;-87
2023/01/27 14:02:58;;;;;;;85.40;39.03;;;1.70;99.90;;;;;;6045890;23;20203;-87
2023/01/27 14:05:42;;;;;;;92.72;42.75;;;1.50;99.90;;;;;;6044449;23;20415;-88
2023/01/27 14:08:44;;;;;;;94.55;44.08;;;1.70;99.90;;;;;;6140714;23;20180;-87
2023/01/27 14:11:23;;;;;;;91.93;36.10;;;1.70;99.90;;;;;;6167906;23;20181;-88
2023/01/27 14:13:50;;;;;;;103.05;40.58;;;1.80;99.90;;;;;;6166220;23;20219;-86
2023/01/27 14:16:34;;;;;;;102.85;41.63;;;1.80;99.90;;;;;;6192794;23;20176;-87
2023/01/27 14:19:32;;;;;;;108.50;42.75;;;1.70;99.90;;;;;;6192774;23;20187;-86
2023/01/27 14:22:23;;;;;;;108.88;43.05;;;1.80;99.90;;;;;;6194300;23;20161;-88
2023/01/27 14:25:09;;;;;;;68.65;35.47;;;1.80;99.90;;;;;;6169393;23;20185;-87
2023/01/27 14:27:46;;;;;;;77.05;33.30;;;1.80;99.90;;;;;;6167950;23;20173;-85
2023/01/27 14:30:21;;;;;;;79.85;38.17;;;1.70;99.90;;;;;;6193091;23;20196;-87
2023/01/27 14:32:58;;;;;;;95.35;41.40;;;1.70;99.90;;;;;;6168377;23;20605;-86
2023/01/27 14:35:39;;;;;;;82.57;39.13;;;1.80;99.90;;;;;;6192883;23;20196;-83
2023/01/27 14:38:32;;;;;;;84.13;40.08;;;1.80;99.90;;;;;;6170442;23;20532;-86
2023/01/27 14:41:18;;;;;;;83.15;38.95;;;1.50;99.90;;;;;;6193022;23;20164;-87
2023/01/27 14:44:17;;;;;;;86.47;40.17;;;1.60;99.90;;;;;;6196448;23;20176;-88
2023/01/27 14:46:57;;;;;;;104.88;48.13;;;1.50;99.90;;;;;;6171061;23;20195;-86
2023/01/27 14:49:39;;;;;;;95.40;41.67;;;1.50;99.90;;;;;;6193124;23;20161;-89
2023/01/27 14:52:29;;;;;;;92.93;41.40;;;1.50;99.90;;;;;;6194806;23;20180;-88
2023/01/27 14:55:14;;;;;;;105.32;44.55;;;1.30;99.90;;;;;;6192360;23;20369;-86
2023/01/27 14:58:29;;;;;;;86.72;45.97;;;1.40;99.90;;;;;;6192200;23;20232;-87
2023/01/27 15:01:13;;;;;;;98.55;44.28;;;1.60;99.90;;;;;;6157526;23;20190;-88
2023/01/27 15:04:01;;;;;;;96.47;46.50;;;1.70;99.90;;;;;;6170055;23;20418;-87
2023/01/27 15:06:51;;;;;;;105.88;44.63;;;1.70;99.90;;;;;;6192250;23;20205;-89
2023/01/27 15:09:44;;;;;;;109.32;52.78;;;1.50;99.90;;;;;;6168673;23;20169;-88
2023/01/27 15:12:32;;;;;;;81.05;37.42;;;1.40;99.90;;;;;;6165407;23;20414;-86
2023/01/27 15:15:23;;;;;;;78.45;42.25;;;1.40;99.90;;;;;;6192491;23;20337;-87
2023/01/27 15:18:00;;;;;;;77.88;38.53;;;1.30;99.90;;;;;;6191699;23;20185;-87
2023/01/27 15:21:16;;;;;;;72.00;32.80;;;1.40;99.90;;;;;;6164949;23;20468;-86
2023/01/27 15:24:07;;;;;;;64.50;33.25;;;1.40;99.90;;;;;;6181958;23;20191;-88
2023/01/27 15:26:36;;;;;;;75.70;37.50;;;1.40;99.90;;;;;;6195303;23;20229;-85
2023/01/27 15:29:05;;;;;;;79.90;37.08;;;1.60;99.90;;;;;;6164416;23;20512;-85
2023/01/27 15:31:32;;;;;;;69.10;34.08;;;1.50;99.90;;;;;;6191158;23;20488;-86
2023/01/27 15:34:02;;;;;;;75.10;39.95;;;1.40;99.90;;;;;;6191618;23;20413;-87
2023/01/27 15:36:39;;;;;;;66.30;36.58;;;1.40;99.90;;;;;;6195900;23;20172;-85
2023/01/27 15:39:09;;;;;;;65.78;33.72;;;1.40;99.90;;;;;;6180449;23;20227;-88
2023/01/27 15:41:58;;;;;;;65.25;34.13;;;1.50;99.90;;;;;;6180573;23;20419;-87
2023/01/27 15:44:31;;;;;;;68.22;34.60;;;1.50;99.90;;;;;;6180665;23;20172;-86
2023/01/27 15:47:22;;;;;;;65.40;37.88;;;1.50;99.90;;;;;;6205737;23;20232;-87
2023/01/27 15:50:03;;;;;;;70.13;34.88;;;1.40;99.90;;;;;;6192851;23;20220;-87
2023/01/27 15:52:35;;;;;;;80.85;41.60;;;1.50;99.90;;;;;;6175114;23;20168;-86
2023/01/27 15:55:20;;;;;;;67.40;37.15;;;1.60;99.90;;;;;;6170942;23;20165;-87
2023/01/27 15:58:16;;;;;;;69.93;38.55;;;1.60;99.90;;;;;;6198366;23;20243;-87
2023/01/27 16:00:57;;;;;;;63.92;36.60;;;1.60;99.90;;;;;;6136049;23;20184;-87
2023/01/27 16:03:37;;;;;;;84.13;39.22;;;1.50;99.90;;;;;;6194842;23;20169;-86
2023/01/27 16:06:08;;;;;;;78.43;39.83;;;1.60;99.90;;;;;;6196445;23;20267;-87
2023/01/27 16:08:47;;;;;;;79.03;40.35;;;1.40;99.90;;;;;;6168424;23;20173;-85
2023/01/27 16:11:29;;;;;;;83.57;40.05;;;1.60;99.90;;;;;;6196074;23;20162;-86
2023/01/27 16:14:12;;;;;;;73.22;36.63;;;1.50;99.90;;;;;;6194475;23;20180;-85
2023/01/27 16:16:44;;;;;;;71.20;37.75;;;1.40;99.90;;;;;;6194404;23;20192;-86
2023/01/27 16:19:22;;;;;;;91.63;40.28;;;1.40;99.90;;;;;;6169638;23;20176;-85
2023/01/27 16:22:11;;;;;;;75.57;39.85;;;1.40;99.90;;;;;;6194460;23;20173;-83
2023/01/27 16:24:50;;;;;;;98.93;43.63;;;1.40;99.90;;;;;;6194474;23;20170;-86
2023/01/27 16:27:58;;;;;;;88.47;41.38;;;1.40;99.90;;;;;;6194027;23;20551;-84
2023/01/27 16:30:39;;;;;;;95.35;39.90;;;1.40;99.90;;;;;;6194555;23;20184;-86
2023/01/27 16:33:23;;;;;;;69.45;37.50;;;1.50;99.90;;;;;;6193018;23;20468;-84
2023/01/27 16:36:19;;;;;;;81.43;39.17;;;1.50;99.90;;;;;;6193842;23;20172;-84
2023/01/27 16:38:47;;;;;;;75.88;38.78;;;1.40;99.90;;;;;;6194063;23;20184;-87
2023/01/27 16:41:35;;;;;;;76.20;38.80;;;1.50;99.90;;;;;;6167032;23;20216;-84